createdAt,value
2023-05-10T00:04:17.245Z,11.80003
2023-05-10T00:09:29.366Z,11.85124
2023-05-10T00:14:41.459Z,11.80617
2023-05-10T00:19:53.636Z,11.81065
2023-05-10T00:25:05.820Z,11.80046
2023-05-10T00:30:18.258Z,11.66847
2023-05-10T00:35:30.888Z,11.56113
2023-05-10T00:40:43.066Z,11.45099
2023-05-10T00:45:55.222Z,11.40332
2023-05-10T00:51:07.345Z,11.33047
2023-05-10T00:56:20.240Z,11.3038
2023-05-10T01:01:32.377Z,11.30461
2023-05-10T01:06:44.551Z,11.22519
2023-05-10T01:12:00.086Z,11.09557
2023-05-10T01:17:12.298Z,10.99471
2023-05-10T01:22:24.598Z,10.91441
2023-05-10T01:27:36.809Z,10.86765
2023-05-10T01:32:49.522Z,10.84096
2023-05-10T01:38:05.627Z,10.78996
2023-05-10T01:43:17.734Z,10.70294
2023-05-10T01:48:29.892Z,10.73393
2023-05-10T01:53:42.251Z,10.70506
2023-05-10T01:58:54.378Z,10.61694
2023-05-10T02:04:07.158Z,10.56303
2023-05-10T02:09:19.333Z,10.53665
2023-05-10T02:14:31.508Z,10.45767
2023-05-10T02:19:43.686Z,10.46791
2023-05-10T02:24:55.799Z,10.4173
2023-05-10T02:30:07.923Z,10.33353
2023-05-10T02:35:20.073Z,10.35863
2023-05-10T02:40:32.270Z,10.29123
2023-05-10T02:45:44.519Z,10.26793
2023-05-10T02:50:56.734Z,10.16977
2023-05-10T02:56:08.984Z,10.16328
2023-05-10T03:01:21.125Z,10.1505
2023-05-10T03:06:33.283Z,10.19138
2023-05-10T03:11:45.404Z,10.21408
2023-05-10T03:16:57.522Z,10.15501
2023-05-10T03:22:09.639Z,10.21675
2023-05-10T03:27:21.737Z,10.29285
2023-05-10T03:32:33.916Z,10.30894
2023-05-10T03:37:46.022Z,10.27739
2023-05-10T03:42:58.132Z,10.33849
2023-05-10T03:48:10.265Z,10.43117
2023-05-10T03:53:22.569Z,10.53908
2023-05-10T03:58:34.687Z,10.52455
2023-05-10T04:03:47.599Z,10.48097
2023-05-10T04:08:59.872Z,10.47734
2023-05-10T04:14:12.982Z,10.48582
2023-05-10T04:19:25.094Z,10.51245
2023-05-10T04:24:37.217Z,10.48701
2023-05-10T04:29:49.340Z,10.55121
2023-05-10T04:35:01.523Z,10.51605
2023-05-10T04:40:13.702Z,10.53058
2023-05-10T04:45:25.874Z,10.5912
2023-05-10T04:50:38.067Z,10.62144
2023-05-10T04:55:50.188Z,10.57993
2023-05-10T05:01:02.917Z,10.54633
2023-05-10T05:06:19.235Z,10.56232
2023-05-10T05:11:31.416Z,10.75858
2023-05-10T05:16:43.694Z,10.85783
2023-05-10T05:21:55.935Z,10.94264
2023-05-10T05:27:08.124Z,11.00737
2023-05-10T05:32:20.235Z,11.08096
2023-05-10T05:37:32.350Z,11.15802
2023-05-10T05:37:44.410Z,11.15904
2023-05-10T05:42:56.522Z,11.11752
2023-05-10T05:48:08.655Z,11.23845
2023-05-10T05:53:20.960Z,11.20679
2023-05-10T05:58:33.088Z,11.2363
2023-05-10T06:03:45.361Z,11.3815
2023-05-10T06:08:57.724Z,11.51379
2023-05-10T06:14:09.898Z,11.3705
2023-05-10T06:19:24.762Z,11.45656
2023-05-10T06:24:38.672Z,11.55724
2023-05-10T06:29:56.366Z,11.63042
2023-05-10T06:35:11.514Z,11.69917
2023-05-10T06:40:23.621Z,11.67686
2023-05-10T06:45:35.757Z,11.48347
2023-05-10T06:50:47.872Z,11.60928
2023-05-10T06:56:00.052Z,11.56755
2023-05-10T07:01:12.344Z,11.62202
2023-05-10T07:06:32.980Z,11.67319
2023-05-10T07:11:46.022Z,12.02307
2023-05-10T07:16:58.163Z,12.05321
2023-05-10T07:22:10.282Z,11.74684
2023-05-10T07:27:22.471Z,11.80804
2023-05-10T07:32:35.704Z,11.85011
2023-05-10T07:37:50.898Z,11.48792
2023-05-10T07:43:03.049Z,11.36787
2023-05-10T07:48:15.172Z,11.37709
2023-05-10T07:53:32.403Z,11.50668
2023-05-10T07:58:44.524Z,11.04369
2023-05-10T08:03:56.698Z,11.33125
2023-05-10T08:09:08.906Z,11.30615
2023-05-10T08:14:21.139Z,11.5674
2023-05-10T08:19:33.261Z,11.03709
2023-05-10T08:24:45.369Z,11.43405
2023-05-10T08:29:57.496Z,11.4097
2023-05-10T08:35:10.796Z,11.17833
2023-05-10T08:40:23.442Z,10.78125
2023-05-10T08:45:35.652Z,11.40282
2023-05-10T08:50:47.866Z,11.09496
2023-05-10T08:56:05.131Z,11.24481
2023-05-10T09:01:17.423Z,11.11311
2023-05-10T09:06:29.708Z,10.88492
2023-05-10T09:11:41.880Z,10.47481
2023-05-10T09:16:54.037Z,10.54333
2023-05-10T09:17:06.212Z,10.59427
2023-05-10T09:22:18.450Z,10.12788
2023-05-10T09:27:30.553Z,10.39449
2023-05-10T09:32:42.804Z,10.47389
2023-05-10T09:37:55.970Z,9.702225
2023-05-10T09:43:10.085Z,10.23158
2023-05-10T09:48:23.434Z,10.6035
2023-05-10T09:53:35.560Z,10.2406
2023-05-10T09:58:47.615Z,10.63953
2023-05-10T10:03:59.840Z,10.65927
2023-05-10T10:09:12.157Z,9.93367
2023-05-10T10:14:24.347Z,10.15436
2023-05-10T10:19:36.909Z,10.38153
2023-05-10T10:24:49.531Z,10.44403
2023-05-10T10:30:02.098Z,10.35835
2023-05-10T10:35:14.474Z,10.43903
2023-05-10T10:40:26.932Z,11.63786
2023-05-10T10:45:40.209Z,9.568802
2023-05-10T10:50:54.066Z,9.508652
2023-05-10T10:56:06.287Z,8.793884
2023-05-10T11:01:18.562Z,8.563995
2023-05-10T11:06:30.706Z,9.120987
2023-05-10T11:11:42.816Z,9.570892
2023-05-10T11:16:55.140Z,8.996231
2023-05-10T11:22:07.831Z,8.953888
2023-05-10T11:27:19.879Z,8.390335
2023-05-10T11:32:32.058Z,8.944717
2023-05-10T11:37:44.214Z,9.399994
2023-05-10T11:42:56.402Z,9.745941
2023-05-10T11:48:08.573Z,9.378189
2023-05-10T11:53:21.250Z,9.643829
2023-05-10T11:58:33.376Z,10.60889
2023-05-10T12:03:45.932Z,9.791382
2023-05-10T12:08:58.178Z,10.33078
2023-05-10T12:14:12.570Z,10.2112
2023-05-10T12:19:25.035Z,9.809372
2023-05-10T12:24:37.255Z,9.655884
2023-05-10T12:29:49.530Z,9.26442
2023-05-10T12:35:02.516Z,9.2509
2023-05-10T12:40:14.795Z,9.574188
2023-05-10T12:45:27.086Z,9.12735
2023-05-10T12:50:39.220Z,8.528366
2023-05-10T12:55:51.328Z,9.045761
2023-05-10T13:01:04.049Z,9.235321
2023-05-10T13:06:16.358Z,8.202805
2023-05-10T13:11:28.569Z,9.039352
2023-05-10T13:16:40.714Z,9.01767
2023-05-10T13:21:52.853Z,8.490479
2023-05-10T13:27:04.974Z,8.749146
2023-05-10T13:32:17.091Z,8.174393
2023-05-10T13:37:29.832Z,8.399643
2023-05-10T13:42:41.949Z,8.547226
2023-05-10T13:47:54.089Z,8.626297
2023-05-10T13:53:06.405Z,8.450012
2023-05-10T13:58:18.705Z,7.924942
2023-05-10T14:03:30.940Z,9.182175
2023-05-10T14:08:43.258Z,8.7789
2023-05-10T14:13:55.518Z,8.992081
2023-05-10T14:19:08.291Z,9.098618
2023-05-10T14:24:20.542Z,9.311188
2023-05-10T14:29:32.659Z,9.687927
2023-05-10T14:34:45.283Z,9.455521
2023-05-10T14:39:57.438Z,9.479965
2023-05-10T14:45:09.563Z,9.430725
2023-05-10T14:50:35.092Z,9.279816
2023-05-10T14:55:48.910Z,8.979538
2023-05-10T15:01:01.129Z,8.459854
2023-05-10T15:06:13.806Z,7.732773
2023-05-10T15:11:25.928Z,8.314407
2023-05-10T15:16:38.103Z,7.383362
2023-05-10T15:21:50.246Z,7.499496
2023-05-10T15:27:02.613Z,8.281723
2023-05-10T15:32:14.795Z,8.525482
2023-05-10T15:37:27.033Z,7.876862
2023-05-10T15:42:39.148Z,8.349686
2023-05-10T15:47:51.371Z,7.28154
2023-05-10T15:53:06.313Z,7.851028
2023-05-10T15:58:18.427Z,7.971802
2023-05-10T16:03:30.601Z,8.525635
2023-05-10T16:08:42.810Z,8.537888
2023-05-10T16:13:55.091Z,8.535919
2023-05-10T16:19:07.729Z,7.941025
2023-05-10T16:24:22.448Z,8.810425
2023-05-10T16:29:34.643Z,7.576965
2023-05-10T16:34:46.833Z,8.007004
2023-05-10T16:39:59.673Z,8.561066
2023-05-10T16:45:11.922Z,8.263748
2023-05-10T16:50:24.038Z,8.65239
2023-05-10T16:55:36.206Z,8.893967
2023-05-10T17:00:48.329Z,8.663589
2023-05-10T17:06:00.449Z,8.323105
2023-05-10T17:11:12.748Z,8.200333
2023-05-10T17:16:25.497Z,7.98761
2023-05-10T17:21:37.807Z,8.267761
2023-05-10T17:26:50.044Z,8.526413
2023-05-10T17:32:02.897Z,8.492844
2023-05-10T17:37:15.212Z,8.682892
2023-05-10T17:42:27.398Z,8.927963
2023-05-10T17:47:40.120Z,9.194656
2023-05-10T17:52:52.708Z,9.069122
2023-05-10T17:58:07.061Z,8.526672
2023-05-10T18:03:19.164Z,8.676834
2023-05-10T18:08:31.282Z,8.805557
2023-05-10T18:13:48.053Z,8.848206
2023-05-10T18:19:00.518Z,8.835205
2023-05-10T18:24:26.520Z,8.939392
2023-05-10T18:29:49.600Z,8.794144
2023-05-10T18:35:07.231Z,8.694244
2023-05-10T18:40:19.355Z,8.558594
2023-05-10T18:45:31.456Z,8.844971
2023-05-10T18:50:43.749Z,8.506851
2023-05-10T18:55:56.179Z,8.884262
2023-05-10T19:01:08.372Z,8.81694
2023-05-10T19:06:21.007Z,8.758865
2023-05-10T19:11:33.110Z,8.781342
2023-05-10T19:16:45.243Z,8.757736
2023-05-10T19:21:57.379Z,8.955429
2023-05-10T19:27:09.495Z,8.875656
2023-05-10T19:32:23.076Z,8.704788
2023-05-10T19:37:35.248Z,8.596375
2023-05-10T19:42:48.187Z,8.596619
2023-05-10T19:48:00.428Z,8.524155
2023-05-10T19:53:12.505Z,8.799133
2023-05-10T19:58:24.615Z,8.481567
2023-05-10T20:03:36.878Z,8.639862
2023-05-10T20:08:49.002Z,8.580048
2023-05-10T20:14:01.114Z,8.481644
2023-05-10T20:19:13.412Z,8.373032
2023-05-10T20:24:26.121Z,8.313461
2023-05-10T20:29:38.255Z,8.408569
2023-05-10T20:34:50.498Z,8.294556
2023-05-10T20:40:02.687Z,8.367905
2023-05-10T20:45:15.250Z,8.328918
2023-05-10T20:50:27.368Z,8.228867
2023-05-10T20:55:40.562Z,8.198074
2023-05-10T21:00:57.684Z,8.402069
2023-05-10T21:06:11.157Z,8.059158
2023-05-10T21:11:23.413Z,8.021713
2023-05-10T21:16:35.643Z,7.904907
2023-05-10T21:21:48.022Z,8.037369
2023-05-10T21:27:00.152Z,8.108353
2023-05-10T21:32:12.433Z,8.043686
2023-05-10T21:37:24.717Z,7.920105
2023-05-10T21:42:36.835Z,7.912949
2023-05-10T21:47:48.961Z,7.928116
2023-05-10T21:53:01.096Z,7.736877
2023-05-10T21:58:13.193Z,7.649506
2023-05-10T22:03:25.668Z,7.453232
2023-05-10T22:08:38.170Z,7.679428
2023-05-10T22:13:50.282Z,7.280518
2023-05-10T22:19:02.769Z,7.301056
2023-05-10T22:24:15.035Z,7.164505
2023-05-10T22:29:27.197Z,7.1241
2023-05-10T22:34:39.381Z,7.36821
2023-05-10T22:39:51.485Z,7.413254
2023-05-10T22:45:03.727Z,7.536743
2023-05-10T22:50:16.354Z,7.231201
2023-05-10T22:55:28.827Z,7.347275
2023-05-10T23:00:41.001Z,7.273438
2023-05-10T23:05:53.714Z,7.087341
2023-05-10T23:11:05.828Z,6.765503
2023-05-10T23:16:17.996Z,6.715683
2023-05-10T23:21:32.134Z,6.892303
2023-05-10T23:26:44.438Z,6.978104
2023-05-10T23:31:56.625Z,6.932449
2023-05-10T23:37:10.109Z,6.93779
2023-05-10T23:42:22.359Z,6.810318
2023-05-10T23:47:34.585Z,6.72403
2023-05-10T23:52:46.912Z,6.871979
2023-05-10T23:57:59.031Z,7.029175
